Time;durP1;ratioP1;P1;durP2;ratioP2;P2;SDS_P1;SDS_P2;PMS_P1;PMS_P2;Temp;Humidity;BMP_temperature;BMP_pressure;BME280_temperature;BME280_humidity;BME280_pressure;Samples;Min_cycle;Max_cycle;Signal;HPM_P1;HPM_P2
2022/08/27 00:02:23;;;;;;;6.68;4.82;;;;;;;22.05;46.09;102015.00;5110914;28;20385;-82
2022/08/27 00:04:49;;;;;;;8.20;4.88;;;;;;;22.02;46.08;102022.09;5110741;28;20032;-82
2022/08/27 00:07:15;;;;;;;5.53;4.43;;;;;;;21.99;45.85;102016.44;5095203;28;20020;-82
2022/08/27 00:09:42;;;;;;;9.75;4.55;;;;;;;21.87;46.12;102014.56;5093899;28;20016;-82
2022/08/27 00:12:09;;;;;;;6.80;4.78;;;;;;;21.88;46.13;102013.41;5093812;28;20027;-82
2022/08/27 00:14:37;;;;;;;5.03;3.95;;;;;;;21.84;46.16;102016.13;5095022;28;20502;-83
2022/08/27 00:17:04;;;;;;;8.05;5.15;;;;;;;21.85;45.85;102011.34;5095217;28;20588;-87
2022/08/27 00:19:30;;;;;;;16.80;5.75;;;;;;;21.85;46.10;102016.91;5095380;28;20420;-84
2022/08/27 00:21:56;;;;;;;19.08;5.63;;;;;;;21.84;45.89;102015.31;5095011;28;20104;-82
2022/08/27 00:24:22;;;;;;;21.42;5.97;;;;;;;21.81;45.94;102019.59;5095968;28;20028;-81
2022/08/27 00:26:49;;;;;;;11.52;6.13;;;;;;;21.76;46.09;102024.59;5094902;28;20454;-81
2022/08/27 00:29:15;;;;;;;25.45;6.68;;;;;;;21.73;46.27;102014.22;5110406;28;20028;-81
2022/08/27 00:31:41;;;;;;;30.27;6.80;;;;;;;21.68;46.33;102006.13;5094744;28;20028;-81
2022/08/27 00:34:07;;;;;;;24.13;6.05;;;;;;;21.66;46.16;101997.34;5110325;28;20131;-80
2022/08/27 00:36:32;;;;;;;16.52;6.30;;;;;;;21.59;46.43;102004.31;5094722;28;20020;-82
2022/08/27 00:38:58;;;;;;;13.43;4.82;;;;;;;21.53;46.47;102005.75;5110264;28;20032;-82
2022/08/27 00:41:23;;;;;;;8.95;4.78;;;;;;;21.47;46.64;102001.63;5094550;28;20028;-82
2022/08/27 00:43:52;;;;;;;8.00;5.30;;;;;;;21.47;46.64;102012.75;5110316;28;20031;-82
2022/08/27 00:46:41;;;;;;;5.53;4.63;;;;;;;21.46;46.39;102000.03;5110326;28;20042;-82
2022/08/27 00:49:13;;;;;;;5.45;4.32;;;;;;;21.40;46.44;102018.13;5094587;28;20032;-82
2022/08/27 00:51:41;;;;;;;5.47;3.83;;;;;;;21.39;46.41;102013.75;5093080;28;20060;-82
2022/08/27 00:54:08;;;;;;;6.15;3.72;;;;;;;21.38;46.21;102014.88;5094181;28;20048;-82
2022/08/27 00:56:39;;;;;;;4.65;4.15;;;;;;;21.27;46.53;102017.38;5110216;28;20473;-82
2022/08/27 00:59:05;;;;;;;6.22;3.75;;;;;;;21.19;46.62;102021.09;5094168;28;20607;-82
2022/08/27 01:01:33;;;;;;;6.20;3.88;;;;;;;21.10;46.47;102016.84;5109897;28;20023;-82
2022/08/27 01:04:04;;;;;;;6.43;3.92;;;;;;;21.23;46.13;102018.41;5094096;28;20031;-82
2022/08/27 01:06:33;;;;;;;10.48;3.88;;;;;;;21.22;46.07;102016.78;5110250;28;20032;-82
2022/08/27 01:09:08;;;;;;;4.45;3.60;;;;;;;21.19;45.71;102012.75;5092724;28;20038;-82
2022/08/27 01:11:34;;;;;;;5.95;3.92;;;;;;;21.21;45.85;102006.84;5109913;28;20024;-82
2022/08/27 01:14:01;;;;;;;5.25;3.90;;;;;;;21.20;45.65;102006.03;5092174;28;20040;-82
2022/08/27 01:16:34;;;;;;;11.52;4.28;;;;;;;21.16;46.04;102007.09;5092162;28;20498;-82
2022/08/27 01:19:00;;;;;;;6.35;4.78;;;;;;;21.14;45.88;102009.41;5109597;28;20024;-82
2022/08/27 01:21:28;;;;;;;5.85;3.97;;;;;;;21.00;46.11;102007.03;5092461;28;20024;-83
2022/08/27 01:23:54;;;;;;;9.02;4.13;;;;;;;20.98;46.27;102006.59;5108696;28;20031;-82
2022/08/27 01:26:21;;;;;;;6.90;4.95;;;;;;;20.88;46.47;102007.91;5108348;28;20486;-81
2022/08/27 01:28:48;;;;;;;8.20;5.00;;;;;;;20.83;46.33;102001.78;5109195;28;20020;-82
2022/08/27 01:31:13;;;;;;;9.13;5.63;;;;;;;20.88;46.42;102007.09;5092437;28;20046;-82
2022/08/27 01:33:40;;;;;;;9.75;5.00;;;;;;;20.91;46.19;102004.41;5108718;28;20028;-81
2022/08/27 01:36:06;;;;;;;8.10;5.70;;;;;;;20.94;46.04;102002.91;5091881;28;20044;-82
2022/08/27 01:38:33;;;;;;;8.95;6.25;;;;;;;20.86;46.17;102004.69;5092249;28;20523;-82
2022/08/27 01:41:00;;;;;;;7.45;4.88;;;;;;;20.85;46.01;101997.47;5093433;28;20038;-82
2022/08/27 01:43:26;;;;;;;9.82;5.15;;;;;;;20.81;46.13;102001.34;5109009;28;20066;-82
2022/08/27 01:45:51;;;;;;;9.18;6.10;;;;;;;20.80;46.17;102002.50;5109262;28;20474;-82
2022/08/27 01:48:19;;;;;;;7.00;5.18;;;;;;;20.77;46.03;102004.00;5109100;28;20144;-82
2022/08/27 01:50:47;;;;;;;10.85;5.50;;;;;;;20.77;45.92;102002.03;5092018;28;20122;-82
2022/08/27 01:53:24;;;;;;;10.55;6.53;;;;;;;20.59;46.43;102002.66;5092112;28;20024;-82
2022/08/27 01:55:52;;;;;;;10.10;5.32;;;;;;;20.56;46.33;101995.06;5091892;28;20028;-82
2022/08/27 01:58:21;;;;;;;10.43;5.50;;;;;;;20.53;46.18;102001.28;5091950;28;20020;-82
2022/08/27 02:00:50;;;;;;;6.70;4.57;;;;;;;20.39;46.54;102007.16;5091888;28;20020;-82
2022/08/27 02:03:17;;;;;;;9.70;5.80;;;;;;;20.26;46.81;102011.94;5108771;28;20546;-82
2022/08/27 02:05:44;;;;;;;8.88;5.43;;;;;;;20.15;46.83;102013.56;5108941;28;20123;-82
2022/08/27 02:08:12;;;;;;;8.27;5.15;;;;;;;20.18;46.92;102010.09;5091757;28;20020;-82
2022/08/27 02:10:39;;;;;;;8.50;5.50;;;;;;;20.16;46.89;102006.84;5108716;28;20024;-81
2022/08/27 02:13:06;;;;;;;8.23;5.07;;;;;;;20.16;46.63;102009.63;5098849;28;20115;-82
2022/08/27 02:15:34;;;;;;;8.45;4.03;;;;;;;20.11;46.73;102001.56;5071510;28;20024;-82
2022/08/27 02:18:00;;;;;;;4.75;3.90;;;;;;;20.03;46.74;102002.47;5088171;28;20029;-82
2022/08/27 02:20:26;;;;;;;7.93;4.55;;;;;;;20.00;46.71;102006.75;5072775;28;20043;-82
2022/08/27 02:22:52;;;;;;;8.25;4.45;;;;;;;19.99;46.57;102004.31;5088240;28;20024;-82
2022/08/27 02:25:19;;;;;;;6.85;4.20;;;;;;;19.99;46.61;101996.00;5072672;28;20025;-82
2022/08/27 02:27:46;;;;;;;13.80;4.65;;;;;;;20.03;46.29;101999.72;5071106;28;20016;-82
2022/08/27 02:30:14;;;;;;;9.25;4.97;;;;;;;20.01;46.16;102000.03;5088215;28;20051;-82
2022/08/27 02:32:40;;;;;;;7.15;4.65;;;;;;;20.06;46.21;102001.78;5071369;28;20024;-83
2022/08/27 02:35:07;;;;;;;10.80;4.70;;;;;;;20.03;46.41;101994.16;5071335;28;20074;-82
2022/08/27 02:37:33;;;;;;;5.65;5.00;;;;;;;20.13;45.90;101999.22;5071397;28;20033;-82
2022/08/27 02:40:00;;;;;;;7.75;5.47;;;;;;;20.14;45.83;101995.28;5071146;28;20102;-82
2022/08/27 02:42:26;;;;;;;5.15;4.38;;;;;;;20.10;45.96;101997.97;5071302;28;20032;-82
2022/08/27 02:44:53;;;;;;;7.28;5.10;;;;;;;20.11;45.97;101990.44;5088114;28;20044;-82
2022/08/27 02:47:19;;;;;;;6.65;5.18;;;;;;;20.09;45.92;101992.75;5072446;28;20106;-81
2022/08/27 02:49:45;;;;;;;5.80;4.90;;;;;;;20.07;45.95;101995.88;5072456;28;20064;-82
2022/08/27 02:52:11;;;;;;;7.03;5.30;;;;;;;20.06;45.89;101999.00;5072406;28;20028;-82
2022/08/27 02:54:36;;;;;;;7.50;5.45;;;;;;;20.05;45.87;101994.59;5072379;28;20477;-82
2022/08/27 02:57:02;;;;;;;6.55;5.22;;;;;;;19.99;45.85;101987.66;5072319;28;20031;-82
2022/08/27 02:59:27;;;;;;;7.70;5.22;;;;;;;19.96;45.91;101986.41;5087866;28;20107;-82
2022/08/27 03:01:53;;;;;;;5.38;4.13;;;;;;;19.88;46.07;101998.44;5087970;28;20368;-81
2022/08/27 03:04:19;;;;;;;6.82;4.57;;;;;;;19.81;46.03;101998.19;5070993;28;20024;-82
2022/08/27 03:06:46;;;;;;;6.53;4.38;;;;;;;19.75;46.05;101994.81;5072252;28;20592;-84
2022/08/27 03:09:11;;;;;;;5.18;3.95;;;;;;;19.72;45.94;101998.28;5070962;28;20029;-81
2022/08/27 03:11:38;;;;;;;6.28;4.45;;;;;;;19.70;46.15;101988.69;5072125;28;20039;-81
2022/08/27 03:14:04;;;;;;;5.13;4.10;;;;;;;19.73;46.00;101996.34;5072072;28;20131;-82
2022/08/27 03:16:33;;;;;;;5.57;3.85;;;;;;;19.66;46.17;101986.63;5071280;28;20128;-82
2022/08/27 03:18:58;;;;;;;7.20;4.67;;;;;;;19.62;46.40;101991.22;5070978;28;20069;-81
2022/08/27 03:21:24;;;;;;;5.78;3.88;;;;;;;19.60;46.48;101985.22;5072175;28;20284;-82
2022/08/27 03:23:50;;;;;;;6.53;4.00;;;;;;;19.51;46.56;101990.03;5072106;28;20028;-83
2022/08/27 03:26:17;;;;;;;5.95;4.10;;;;;;;19.53;46.48;101989.69;5072286;28;20479;-82
2022/08/27 03:28:44;;;;;;;7.00;3.95;;;;;;;19.50;46.34;101987.59;5087723;28;20060;-82
2022/08/27 03:31:16;;;;;;;6.97;4.65;;;;;;;19.46;46.41;101987.47;5070818;28;20029;-82
2022/08/27 03:33:44;;;;;;;5.32;4.10;;;;;;;19.41;46.64;101982.13;5072039;28;20032;-82
2022/08/27 03:36:10;;;;;;;7.18;4.20;;;;;;;19.34;46.54;101988.22;5071933;28;20040;-83
2022/08/27 03:38:37;;;;;;;6.88;5.07;;;;;;;19.26;46.69;101986.38;5088749;28;20036;-83
2022/08/27 03:41:04;;;;;;;6.18;4.82;;;;;;;18.99;47.28;101993.31;5074205;28;20033;-82
2022/08/27 03:43:30;;;;;;;6.22;4.97;;;;;;;19.08;46.94;101982.16;5075478;28;20025;-82
2022/08/27 03:45:55;;;;;;;6.45;5.05;;;;;;;19.04;47.08;101987.59;5075427;28;20036;-82
2022/08/27 03:48:21;;;;;;;7.30;5.07;;;;;;;19.08;47.07;101982.97;5090953;28;20171;-81
2022/08/27 03:50:48;;;;;;;7.22;4.75;;;;;;;19.15;47.12;101978.84;5075319;28;20078;-83
2022/08/27 03:53:19;;;;;;;5.65;4.55;;;;;;;19.31;46.90;101975.06;5074083;28;20028;-82
2022/08/27 03:55:45;;;;;;;6.28;4.72;;;;;;;19.25;47.12;101981.16;5075334;28;20028;-82
2022/08/27 03:58:12;;;;;;;5.53;4.55;;;;;;;19.28;47.10;101974.97;5075391;28;20029;-82
2022/08/27 04:00:39;;;;;;;7.60;5.18;;;;;;;19.45;46.89;101976.72;5073867;28;20036;-82
2022/08/27 04:03:05;;;;;;;6.35;4.97;;;;;;;19.43;47.11;101995.69;5090636;28;20498;-82
2022/08/27 04:05:32;;;;;;;8.30;4.95;;;;;;;19.41;47.18;101994.03;5075254;28;20028;-82
2022/08/27 04:07:58;;;;;;;7.63;4.82;;;;;;;19.39;47.28;101988.03;5075001;28;20052;-82
2022/08/27 04:10:24;;;;;;;9.65;4.93;;;;;;;19.41;47.17;101988.47;5073736;28;20458;-83
2022/08/27 04:12:50;;;;;;;7.75;4.93;;;;;;;19.47;47.33;101993.81;5074867;28;20078;-82
2022/08/27 04:15:15;;;;;;;6.00;4.32;;;;;;;19.49;47.16;101989.53;5074847;28;20052;-83
2022/08/27 04:17:41;;;;;;;6.90;4.72;;;;;;;19.51;47.06;101992.00;5075090;28;20025;-82
2022/08/27 04:20:09;;;;;;;9.75;5.10;;;;;;;19.54;47.11;101991.28;5074928;28;20016;-83
2022/08/27 04:22:35;;;;;;;6.05;4.82;;;;;;;19.55;47.20;101992.91;5074693;28;20052;-82
2022/08/27 04:25:01;;;;;;;5.35;4.43;;;;;;;19.54;47.24;101983.78;5073526;28;20084;-82
2022/08/27 04:27:27;;;;;;;7.13;5.40;;;;;;;19.57;47.27;101977.59;5075057;28;20024;-82
2022/08/27 04:29:55;;;;;;;7.10;5.10;;;;;;;19.64;47.17;101977.00;5074830;28;20103;-82
2022/08/27 04:32:22;;;;;;;10.57;5.90;;;;;;;19.69;47.32;101976.78;5074552;28;20096;-82
2022/08/27 04:34:47;;;;;;;10.55;5.88;;;;;;;19.72;47.32;101973.31;5074623;28;20027;-82
2022/08/27 04:37:13;;;;;;;8.20;6.10;;;;;;;19.73;47.34;101976.94;5089953;28;20025;-82
2022/08/27 04:39:39;;;;;;;8.93;6.07;;;;;;;19.77;47.30;101970.31;5074420;28;20103;-82
2022/08/27 04:42:04;;;;;;;8.75;6.63;;;;;;;19.80;47.49;101969.66;5074327;28;20538;-82
2022/08/27 04:44:32;;;;;;;10.25;6.95;;;;;;;19.75;47.53;101974.59;5074530;28;20029;-82
2022/08/27 04:47:00;;;;;;;10.63;6.57;;;;;;;19.83;47.30;101971.72;5074273;28;20040;-82
2022/08/27 04:49:26;;;;;;;8.05;5.93;;;;;;;19.85;47.36;101963.84;5072839;28;20037;-83
2022/08/27 04:51:53;;;;;;;11.50;6.50;;;;;;;19.92;47.45;101968.81;5089793;28;20493;-82
2022/08/27 04:54:19;;;;;;;10.40;6.32;;;;;;;19.92;47.51;101966.06;5072804;28;20028;-83
2022/08/27 04:56:45;;;;;;;9.35;6.47;;;;;;;19.97;47.40;101965.03;5074043;28;20043;-82
2022/08/27 04:59:11;;;;;;;10.20;6.43;;;;;;;19.95;47.46;101968.97;5073847;28;20427;-83
2022/08/27 05:01:39;;;;;;;12.65;7.25;;;;;;;19.99;47.27;101971.84;5072528;28;20475;-84
2022/08/27 05:04:06;;;;;;;11.20;6.88;;;;;;;19.97;47.59;101974.16;5073244;28;20040;-83
2022/08/27 05:06:35;;;;;;;15.07;7.40;;;;;;;20.03;47.28;101972.78;5073979;28;20108;-83
2022/08/27 05:09:02;;;;;;;10.88;7.78;;;;;;;19.92;47.71;101971.59;5072614;28;20687;-82
2022/08/27 05:11:31;;;;;;;11.40;6.75;;;;;;;19.92;47.57;101966.88;5073747;28;20029;-83
2022/08/27 05:13:57;;;;;;;10.00;6.45;;;;;;;19.97;47.63;101973.34;5073520;28;20119;-83
2022/08/27 05:16:23;;;;;;;14.50;7.35;;;;;;;19.98;47.55;101974.97;5073743;28;20115;-83
2022/08/27 05:18:51;;;;;;;21.55;7.95;;;;;;;19.88;48.00;101968.72;5073693;28;20029;-83
2022/08/27 05:21:30;;;;;;;15.73;8.02;;;;;;;19.90;48.30;101968.38;5073553;28;20074;-83
2022/08/27 05:23:57;;;;;;;11.90;6.53;;;;;;;20.01;47.57;101966.75;5073553;28;20032;-83
2022/08/27 05:26:23;;;;;;;11.07;6.47;;;;;;;20.05;47.54;101975.19;5072506;28;20390;-82
2022/08/27 05:28:49;;;;;;;12.60;7.03;;;;;;;20.08;47.54;101968.94;5073368;28;20021;-83
2022/08/27 05:31:15;;;;;;;10.77;6.45;;;;;;;20.06;47.54;101968.47;5073545;28;20024;-83
2022/08/27 05:33:41;;;;;;;10.98;7.00;;;;;;;20.12;47.64;101969.88;5073336;28;20103;-83
2022/08/27 05:36:20;;;;;;;11.25;7.35;;;;;;;20.11;47.67;101962.72;5072073;28;20031;-83
2022/08/27 05:38:50;;;;;;;13.23;6.63;;;;;;;20.14;47.61;101967.53;5088925;28;20031;-83
2022/08/27 05:41:23;;;;;;;10.88;6.15;;;;;;;20.12;47.74;101969.88;5088966;28;20367;-83
2022/08/27 05:43:49;;;;;;;10.93;6.63;;;;;;;20.20;47.72;101968.94;5089256;28;20029;-82
2022/08/27 05:46:17;;;;;;;9.02;6.43;;;;;;;20.23;47.66;101966.25;5072066;28;20036;-82
2022/08/27 05:48:43;;;;;;;14.75;6.20;;;;;;;20.16;47.97;101965.22;5071859;28;20021;-82
2022/08/27 05:51:16;;;;;;;13.50;7.60;;;;;;;20.22;47.97;101972.16;5071907;28;20081;-82
2022/08/27 05:53:42;;;;;;;10.45;6.47;;;;;;;20.27;47.87;101969.16;5071793;28;20048;-83
2022/08/27 05:56:19;;;;;;;10.13;5.97;;;;;;;20.31;47.91;101974.81;5088781;28;20440;-83
2022/08/27 06:01:37;;;;;;;13.32;7.03;;;;;;;20.49;47.35;101974.22;5072774;28;20622;-83
2022/08/27 06:04:04;;;;;;;18.25;7.43;;;;;;;20.41;47.93;101983.47;5072844;28;20116;-85
2022/08/27 06:06:33;;;;;;;13.35;7.00;;;;;;;20.37;48.25;101979.78;5073220;28;20040;-82
2022/08/27 06:08:59;;;;;;;12.07;7.00;;;;;;;20.49;47.66;101988.13;5088373;28;20145;-83
2022/08/27 06:11:25;;;;;;;11.70;6.47;;;;;;;20.43;48.07;101983.94;5088505;28;20571;-83
2022/08/27 06:13:50;;;;;;;11.85;6.28;;;;;;;20.51;48.00;101979.44;5071517;28;20629;-83
2022/08/27 06:16:18;;;;;;;11.15;6.15;;;;;;;20.39;48.28;101984.97;5088360;28;20037;-83
2022/08/27 06:18:45;;;;;;;9.68;5.72;;;;;;;20.27;48.94;101988.59;5072776;28;20024;-82
2022/08/27 06:21:12;;;;;;;10.88;6.30;;;;;;;20.42;48.80;101987.06;5071406;28;20509;-84
2022/08/27 06:23:38;;;;;;;11.77;6.72;;;;;;;20.45;48.72;101986.38;5071450;28;20021;-82
2022/08/27 06:26:11;;;;;;;11.02;6.05;;;;;;;20.49;48.80;101982.56;5071472;28;20025;-83
2022/08/27 06:28:40;;;;;;;12.00;6.53;;;;;;;20.55;48.87;101993.41;5071553;28;20021;-85
2022/08/27 06:31:08;;;;;;;12.13;7.13;;;;;;;20.70;48.89;101989.91;5088430;28;20028;-83
2022/08/27 06:33:35;;;;;;;13.10;6.75;;;;;;;20.82;48.73;101987.09;5072768;28;20262;-82
2022/08/27 06:36:04;;;;;;;15.52;6.65;;;;;;;20.99;48.49;101989.56;5088281;28;20135;-83
2022/08/27 06:38:31;;;;;;;10.80;6.60;;;;;;;21.09;48.71;101987.47;5088444;28;20083;-82
2022/08/27 06:40:57;;;;;;;9.77;6.22;;;;;;;21.21;48.73;101985.41;5072607;28;20021;-83
2022/08/27 06:43:23;;;;;;;10.85;6.50;;;;;;;21.40;48.86;101981.19;5071210;28;20021;-82
2022/08/27 06:45:49;;;;;;;12.52;6.70;;;;;;;21.49;48.60;101985.41;5072498;28;20481;-82
2022/08/27 06:48:15;;;;;;;9.93;5.55;;;;;;;21.68;48.40;101978.31;5072552;28;20024;-83
2022/08/27 06:50:42;;;;;;;10.27;5.97;;;;;;;21.73;48.64;101986.41;5072552;28;20036;-83
2022/08/27 06:53:08;;;;;;;11.00;5.97;;;;;;;21.80;48.63;101989.34;5072570;28;20032;-82
2022/08/27 06:55:45;;;;;;;11.68;6.30;;;;;;;21.89;48.68;101993.56;5071254;28;20024;-82
2022/08/27 06:58:14;;;;;;;9.48;6.32;;;;;;;22.01;48.70;101989.88;5072557;28;20077;-83
2022/08/27 07:00:41;;;;;;;10.82;6.18;;;;;;;21.94;49.11;101991.69;5070973;28;20029;-82
2022/08/27 07:03:07;;;;;;;10.93;6.50;;;;;;;21.92;49.22;101989.28;5071059;28;20527;-83
2022/08/27 07:05:34;;;;;;;16.05;6.25;;;;;;;22.07;48.64;101993.22;5071162;28;20016;-83
2022/08/27 07:08:01;;;;;;;13.50;7.65;;;;;;;22.09;48.62;101985.31;5071071;28;20062;-82
2022/08/27 07:10:28;;;;;;;17.58;7.38;;;;;;;22.16;48.63;101991.06;5088899;28;20028;-82
2022/08/27 07:12:53;;;;;;;15.27;7.63;;;;;;;22.26;48.69;101989.69;5088534;28;20025;-82
2022/08/27 07:15:19;;;;;;;13.75;7.45;;;;;;;22.39;48.50;101996.75;5074671;28;20039;-83
2022/08/27 07:17:45;;;;;;;13.52;6.22;;;;;;;22.38;48.86;102000.72;5075978;28;20029;-82
2022/08/27 07:20:12;;;;;;;23.92;7.70;;;;;;;22.45;48.90;102003.66;5091674;28;20025;-83
2022/08/27 07:22:39;;;;;;;10.13;6.47;;;;;;;22.53;48.58;102008.22;5076115;28;20028;-83
2022/08/27 07:25:08;;;;;;;11.30;6.55;;;;;;;22.57;48.62;102008.28;5091530;28;20037;-83
2022/08/27 07:27:33;;;;;;;14.27;5.03;;;;;;;22.64;48.64;102014.81;5075869;28;20032;-83
2022/08/27 07:29:59;;;;;;;7.60;4.70;;;;;;;22.71;48.21;102020.56;5075692;28;20033;-83
2022/08/27 07:32:25;;;;;;;11.00;5.47;;;;;;;22.67;48.30;102016.91;5075726;28;20379;-81
2022/08/27 07:34:50;;;;;;;9.43;5.15;;;;;;;22.73;48.14;102016.59;5075688;28;20039;-83
2022/08/27 07:37:16;;;;;;;9.20;5.88;;;;;;;22.73;48.50;102022.97;5075609;28;20123;-83
2022/08/27 07:39:42;;;;;;;8.20;4.95;;;;;;;22.85;48.17;102030.41;5074357;28;20028;-83
2022/08/27 07:44:52;;;;;;;9.23;5.60;;;;;;;22.85;48.29;102027.59;5075820;28;20132;-83
2022/08/27 07:47:17;;;;;;;8.40;5.22;;;;;;;22.92;47.88;102025.81;5091244;28;20124;-83
2022/08/27 07:49:43;;;;;;;14.65;5.38;;;;;;;22.97;48.31;102033.88;5075454;28;20036;-83
2022/08/27 07:52:09;;;;;;;10.40;5.22;;;;;;;22.94;48.41;102028.22;5091009;28;20032;-82
2022/08/27 07:54:34;;;;;;;6.28;3.95;;;;;;;22.91;48.88;102026.19;5075199;28;20054;-83
2022/08/27 07:57:00;;;;;;;5.57;3.75;;;;;;;22.88;48.66;102026.88;5073976;28;20093;-83
2022/08/27 07:59:26;;;;;;;8.45;4.47;;;;;;;23.00;48.66;102031.53;5090869;28;20054;-83
2022/08/27 08:01:54;;;;;;;6.03;3.38;;;;;;;23.20;48.35;102027.53;5075410;28;20463;-83
2022/08/27 08:04:21;;;;;;;9.35;5.18;;;;;;;23.45;47.76;102022.47;5075111;28;20028;-83
2022/08/27 08:06:47;;;;;;;6.97;4.00;;;;;;;23.63;47.64;102022.81;5075168;28;20568;-83
2022/08/27 08:09:13;;;;;;;12.25;5.10;;;;;;;23.76;47.71;102016.66;5073826;28;20114;-83
2022/08/27 08:11:39;;;;;;;6.20;4.13;;;;;;;23.91;47.74;102025.28;5074119;28;20063;-84
2022/08/27 08:14:04;;;;;;;8.02;4.32;;;;;;;23.97;47.58;102018.22;5074835;28;20056;-83
2022/08/27 08:16:30;;;;;;;7.28;3.65;;;;;;;23.93;47.55;102022.91;5090667;28;20036;-84
2022/08/27 08:18:56;;;;;;;10.05;4.15;;;;;;;23.82;47.85;102027.53;5073814;28;20450;-83
2022/08/27 08:21:22;;;;;;;7.38;3.53;;;;;;;23.96;47.82;102027.78;5075130;28;20070;-83
2022/08/27 08:23:48;;;;;;;6.75;3.85;;;;;;;24.00;47.79;102023.84;5074321;28;20103;-82
2022/08/27 08:26:15;;;;;;;12.88;9.77;;;;;;;23.97;48.13;102024.59;5074985;28;20029;-84
2022/08/27 08:28:41;;;;;;;11.38;5.13;;;;;;;24.06;47.82;102027.13;5090331;28;20051;-83
2022/08/27 08:31:07;;;;;;;4.82;2.92;;;;;;;24.09;47.53;102032.75;5073354;28;20024;-83
2022/08/27 08:33:34;;;;;;;6.95;2.95;;;;;;;24.06;47.44;102032.72;5073437;28;20415;-83
2022/08/27 08:36:09;;;;;;;5.20;2.58;;;;;;;24.12;47.08;102036.81;5073184;28;20032;-83
2022/08/27 08:38:36;;;;;;;8.75;3.03;;;;;;;24.13;46.95;102037.59;5073343;28;20047;-86
2022/08/27 08:41:02;;;;;;;4.78;2.47;;;;;;;24.12;46.91;102042.38;5073318;28;20024;-83
2022/08/27 08:43:40;;;;;;;5.00;2.40;;;;;;;24.20;46.53;102038.53;5089890;28;20028;-83
2022/08/27 08:46:54;;;;;;;5.22;2.13;;;;;;;24.17;45.95;102044.03;5073119;28;20028;-83
2022/08/27 08:49:35;;;;;;;4.50;2.10;;;;;;;24.18;45.97;102045.66;5052215;28;20025;-83
2022/08/27 08:52:28;;;;;;;7.47;1.90;;;;;;;24.33;45.29;102042.75;5035724;28;20117;-83
2022/08/27 08:55:35;;;;;;;4.00;1.70;;;;;;;24.45;44.61;102047.31;5040220;28;20036;-83
2022/08/27 08:58:07;;;;;;;4.55;1.98;;;;;;;24.71;44.29;102049.28;5073906;28;20055;-83
2022/08/27 09:00:33;;;;;;;5.50;2.22;;;;;;;24.58;44.35;102043.13;5089771;28;20074;-83
2022/08/27 09:02:59;;;;;;;3.03;1.70;;;;;;;24.57;44.29;102043.50;5073128;28;20055;-83
2022/08/27 09:05:25;;;;;;;3.40;1.70;;;;;;;24.55;44.46;102037.47;5072964;28;20541;-83
2022/08/27 09:08:25;;;;;;;3.45;1.55;;;;;;;24.61;44.02;102041.53;5089736;28;20475;-83
2022/08/27 09:11:06;;;;;;;5.03;1.88;;;;;;;24.67;43.28;102045.63;5089673;28;20150;-84
2022/08/27 09:13:48;;;;;;;7.15;1.88;;;;;;;24.70;43.26;102050.44;5089375;28;20040;-83
2022/08/27 09:16:14;;;;;;;2.72;1.05;;;;;;;24.78;43.48;102045.75;5073779;28;20032;-82
2022/08/27 09:18:41;;;;;;;6.38;1.67;;;;;;;24.87;43.00;102046.31;5073642;28;20077;-83
2022/08/27 09:21:19;;;;;;;2.50;1.38;;;;;;;24.97;42.61;102045.63;5073736;28;20025;-83
2022/08/27 09:24:00;;;;;;;8.77;2.20;;;;;;;25.17;42.16;102049.91;5089440;28;20615;-83
2022/08/27 09:26:29;;;;;;;5.53;1.70;;;;;;;25.25;42.06;102042.41;5089328;28;20036;-83
2022/08/27 09:29:15;;;;;;;6.18;2.08;;;;;;;25.45;41.76;102045.78;5072483;28;20035;-83
2022/08/27 09:31:45;;;;;;;7.82;1.40;;;;;;;25.36;42.33;102046.09;5073526;28;20016;-83
2022/08/27 09:34:12;;;;;;;7.82;1.27;;;;;;;25.33;42.48;102046.09;5089582;28;20024;-84
2022/08/27 09:36:58;;;;;;;4.18;1.80;;;;;;;25.37;41.99;102042.13;5071500;28;20119;-83
2022/08/27 09:39:32;;;;;;;5.35;2.03;;;;;;;25.38;42.03;102046.53;5072204;28;20550;-83
2022/08/27 09:41:58;;;;;;;3.28;1.48;;;;;;;25.60;41.68;102055.16;5073471;28;20107;-88
2022/08/27 09:44:24;;;;;;;6.65;1.92;;;;;;;25.83;41.30;102053.00;5073524;28;20039;-84
2022/08/27 09:46:55;;;;;;;8.48;1.95;;;;;;;25.90;41.09;102046.66;5089067;28;20111;-83
2022/08/27 09:49:22;;;;;;;4.32;1.50;;;;;;;26.01;40.77;102055.97;5088961;28;20033;-82
2022/08/27 09:51:49;;;;;;;3.72;1.25;;;;;;;25.83;41.04;102049.41;5072194;28;20528;-83
2022/08/27 09:54:43;;;;;;;6.85;2.05;;;;;;;26.31;39.85;102047.41;5071895;28;20035;-83
2022/08/27 09:57:11;;;;;;;3.95;1.92;;;;;;;26.42;39.85;102037.09;5084558;28;20040;-83
2022/08/27 09:59:50;;;;;;;7.05;1.73;;;;;;;26.29;40.10;102044.97;5071942;28;20056;-83
2022/08/27 10:02:19;;;;;;;7.13;1.88;;;;;;;26.47;39.87;102047.94;5072107;28;20558;-83
2022/08/27 10:04:47;;;;;;;4.68;1.52;;;;;;;26.69;39.17;102046.06;5073174;28;20526;-83
2022/08/27 10:07:34;;;;;;;5.75;2.00;;;;;;;26.37;39.80;102045.81;5072995;28;20420;-83
2022/08/27 10:10:19;;;;;;;2.78;1.00;;;;;;;26.24;39.68;102042.53;5088742;28;20032;-83
2022/08/27 10:12:50;;;;;;;5.07;2.10;;;;;;;26.12;40.02;102040.03;5088672;28;20028;-83
2022/08/27 10:15:17;;;;;;;2.72;1.45;;;;;;;26.24;39.79;102036.94;5088609;28;20041;-83
2022/08/27 10:17:51;;;;;;;5.93;1.70;;;;;;;26.04;39.29;102043.19;5073019;28;20020;-83
2022/08/27 10:20:46;;;;;;;2.55;1.45;;;;;;;26.18;39.58;102043.28;5073198;28;20024;-82
2022/08/27 10:23:26;;;;;;;4.35;2.00;;;;;;;26.25;39.81;102044.16;5067701;28;20036;-89
2022/08/27 10:26:06;;;;;;;4.50;2.30;;;;;;;26.27;39.88;102036.16;5088584;28;20024;-84
2022/08/27 10:28:47;;;;;;;5.57;2.05;;;;;;;26.38;39.33;102041.84;5072948;28;20091;-83
2022/08/27 10:31:31;;;;;;;13.45;2.88;;;;;;;26.40;39.47;102039.47;5072648;28;20098;-83
2022/08/27 10:34:21;;;;;;;5.45;2.08;;;;;;;26.27;39.90;102041.75;5088285;28;20124;-84
2022/08/27 10:37:05;;;;;;;8.55;1.90;;;;;;;26.39;40.13;102035.06;5088520;28;20024;-83
2022/08/27 10:40:07;;;;;;;4.82;1.98;;;;;;;26.28;39.94;102031.34;5088332;28;20036;-83
2022/08/27 10:43:00;;;;;;;4.22;2.08;;;;;;;26.50;39.87;102040.72;5072802;28;20021;-84
2022/08/27 10:45:42;;;;;;;3.88;2.42;;;;;;;26.59;39.57;102029.97;5072725;28;20028;-82
2022/08/27 10:48:24;;;;;;;4.28;1.67;;;;;;;26.67;39.43;102031.59;5075191;28;20051;-83
2022/08/27 10:51:14;;;;;;;7.45;2.42;;;;;;;26.61;39.44;102032.41;5076815;28;20037;-83
2022/08/27 10:53:59;;;;;;;6.90;2.35;;;;;;;26.60;39.38;102033.56;5076536;28;20027;-83
2022/08/27 10:56:34;;;;;;;3.67;1.60;;;;;;;26.65;38.96;102033.22;5076716;28;20028;-86
2022/08/27 10:59:08;;;;;;;4.70;1.40;;;;;;;26.76;39.20;102023.66;5076367;28;20025;-83
2022/08/27 11:01:50;;;;;;;4.30;2.03;;;;;;;26.62;39.06;102031.19;5092289;28;20025;-83
2022/08/27 11:04:21;;;;;;;3.10;1.83;;;;;;;26.29;39.42;102027.34;5092261;28;20033;-83
2022/08/27 11:06:57;;;;;;;2.80;1.48;;;;;;;26.43;38.90;102018.25;5076631;28;20033;-82
2022/08/27 11:09:39;;;;;;;3.35;1.45;;;;;;;26.70;38.84;102008.41;5075241;28;20039;-84
2022/08/27 11:12:09;;;;;;;4.10;1.20;;;;;;;26.70;38.70;102007.63;5091970;28;20024;-83
2022/08/27 11:15:03;;;;;;;8.57;1.50;;;;;;;26.67;38.47;102016.78;5076112;28;20040;-84
2022/08/27 11:17:39;;;;;;;3.25;1.67;;;;;;;26.61;38.47;102022.00;5075192;28;20039;-83
2022/08/27 11:20:13;;;;;;;4.18;2.33;;;;;;;26.70;38.42;102014.03;5074921;28;20027;-83
2022/08/27 11:22:46;;;;;;;3.88;2.00;;;;;;;26.55;38.84;102012.34;5091827;28;20043;-83
2022/08/27 11:25:33;;;;;;;4.55;1.42;;;;;;;26.79;38.27;102005.25;5075116;28;20043;-83
2022/08/27 11:28:01;;;;;;;3.92;1.85;;;;;;;26.89;38.40;102006.47;5075859;28;20060;-83
2022/08/27 11:30:42;;;;;;;2.67;1.77;;;;;;;26.70;38.50;102007.63;5076090;28;20081;-83
2022/08/27 11:33:16;;;;;;;3.20;1.63;;;;;;;26.76;38.28;102006.03;5075921;28;20024;-83
2022/08/27 11:35:57;;;;;;;5.10;2.00;;;;;;;26.69;38.51;102011.63;5091652;28;20028;-83
2022/08/27 11:38:26;;;;;;;8.43;2.05;;;;;;;26.86;38.37;102012.88;5091469;28;20036;-83
2022/08/27 11:41:09;;;;;;;4.70;1.60;;;;;;;26.60;38.41;102016.75;5091511;28;20025;-83